Time;durP1;ratioP1;P1;durP2;ratioP2;P2;SDS_P1;SDS_P2;PMS_P1;PMS_P2;Temp;Humidity;BMP_temperature;BMP_pressure;BME280_temperature;BME280_humidity;BME280_pressure;Samples;Min_cycle;Max_cycle;Signal;HPM_P1;HPM_P2
2022/11/22 00:00:42;463255.00;1.54;798.58;0.00;0.00;0.62;;;;;13.10;1.00;;;;;;2264442;61;1685;-86
2022/11/22 00:03:09;328141.00;1.09;566.29;28798.00;0.10;50.50;;;;;13.00;1.00;;;;;;2264375;61;1010;-86
2022/11/22 00:05:37;265205.00;0.88;458.10;0.00;0.00;0.62;;;;;13.10;1.00;;;;;;2264294;61;1007;-89
2022/11/22 00:08:06;118048112.00;393.49;66636496.00;117790824.00;392.64;66201344.00;;;;;13.10;1.00;;;;;;2264370;61;1367;-86
2022/11/22 00:10:34;330834.00;1.10;570.92;9598.00;0.03;17.25;;;;;12.90;1.00;;;;;;2264440;61;1093;-87
2022/11/22 00:13:01;118102776.00;393.68;66729192.00;117643184.00;392.14;65952508.00;;;;;12.70;1.00;;;;;;2264430;61;1922;-85
2022/11/22 00:15:29;611182.00;2.04;1053.53;81816.00;0.27;142.17;;;;;12.90;1.00;;;;;;2264461;61;1167;-86
2022/11/22 00:17:57;482803.00;1.61;832.22;113954.00;0.38;197.65;;;;;12.80;1.00;;;;;;2264228;61;1349;-86
2022/11/22 00:20:24;563972.00;1.88;972.05;89754.00;0.30;155.88;;;;;12.50;1.00;;;;;;2264243;61;1123;-87
2022/11/22 00:22:51;638354.00;2.13;1100.49;162103.00;0.54;280.66;;;;;12.50;1.00;;;;;;2264365;61;1760;-86
2022/11/22 00:25:20;615664.00;2.05;1061.27;123015.00;0.41;213.28;;;;;12.50;1.00;;;;;;2264415;61;972;-88
2022/11/22 00:27:47;742194.00;2.47;1280.49;82905.00;0.28;144.06;;;;;12.40;1.00;;;;;;2264241;61;1772;-85
2022/11/22 00:30:14;496853.00;1.66;856.41;81960.00;0.27;142.42;;;;;12.60;1.00;;;;;;2267933;55;3756;-85
2022/11/22 00:32:41;663193.00;2.21;1143.47;112053.00;0.37;194.37;;;;;12.80;1.00;;;;;;2265120;61;1138;-86
2022/11/22 00:35:10;489704.00;1.63;844.10;123014.00;0.41;213.28;;;;;12.60;1.00;;;;;;2265013;61;1931;-87
2022/11/22 00:37:38;722722.00;2.41;1246.66;130958.00;0.44;226.98;;;;;13.00;1.00;;;;;;2264355;61;1385;-86
2022/11/22 00:40:07;586945.00;1.96;1011.68;78056.00;0.26;135.68;;;;;13.10;1.00;;;;;;2264225;61;1106;-86
2022/11/22 00:42:35;916525.00;3.06;1585.16;150840.00;0.50;261.26;;;;;13.00;1.00;;;;;;2264109;61;1091;-84
2022/11/22 00:45:03;709473.00;2.36;1223.67;86337.00;0.29;149.98;;;;;13.00;1.00;;;;;;2264175;61;1670;-88
2022/11/22 00:47:30;117824720.00;392.75;66258552.00;73018.00;0.24;126.98;;;;;13.20;1.00;;;;;;2264204;61;1673;-86
2022/11/22 00:49:57;598377.00;1.99;1031.42;97343.00;0.32;168.99;;;;;13.20;1.00;;;;;;2264490;61;1707;-86
2022/11/22 00:52:25;794315.00;2.65;1371.21;108270.00;0.36;187.84;;;;;13.20;1.00;;;;;;2295825;41;3647;-87
2022/11/22 00:54:52;720936.00;2.40;1243.56;140053.00;0.47;242.66;;;;;13.10;1.00;;;;;;2264139;61;1915;-86
2022/11/22 00:59:50;1681020.00;5.60;2988.61;89689.00;0.30;155.77;;;;;13.20;1.00;;;;;;2266020;61;1435;-86
2022/11/22 01:02:17;1101405.00;3.67;1912.94;176478.00;0.59;305.42;;;;;13.20;1.00;;;;;;2289043;41;3796;-85
2022/11/22 01:04:44;575606.00;1.92;992.12;87750.00;0.29;152.42;;;;;13.30;1.00;;;;;;2264271;61;1670;-88
2022/11/22 01:07:12;742342.00;2.47;1280.74;98200.00;0.33;170.46;;;;;12.70;1.00;;;;;;2284565;40;3578;-86
2022/11/22 01:09:39;480684.00;1.60;828.57;84511.00;0.28;146.83;;;;;12.80;1.00;;;;;;2264257;61;1139;-87
2022/11/22 01:12:07;486928.00;1.62;839.32;86873.00;0.29;150.91;;;;;12.90;1.00;;;;;;2263948;61;1141;-86
2022/11/22 01:14:34;527655.00;1.76;909.45;98088.00;0.33;170.27;;;;;13.20;1.00;;;;;;2264036;61;2003;-87
2022/11/22 01:17:03;950887.00;3.17;1645.68;92788.00;0.31;161.12;;;;;13.10;1.00;;;;;;2272166;41;3615;-86
2022/11/22 01:24:28;1609646.00;5.37;2851.19;108497.00;0.36;188.24;;;;;13.50;1.00;;;;;;2286352;40;3643;-88
2022/11/22 01:26:56;850368.00;2.83;1469.11;116354.00;0.39;201.79;;;;;13.50;1.00;;;;;;2264082;61;948;-86
2022/11/22 01:29:23;561859.00;1.87;968.41;77404.00;0.26;134.55;;;;;13.60;1.00;;;;;;2264138;61;1783;-87
2022/11/22 01:34:38;1175305.00;3.92;2045.63;83432.00;0.28;144.97;;;;;13.70;1.00;;;;;;2261914;61;1967;-86
2022/11/22 01:37:05;1256848.00;4.19;2193.35;41484.00;0.14;72.46;;;;;13.80;1.00;;;;;;2260132;61;1154;-87
2022/11/22 01:39:33;1535282.00;5.12;2709.69;139772.00;0.47;242.18;;;;;13.50;1.00;;;;;;2259946;61;1764;-86
2022/11/22 01:42:00;1271538.00;4.24;2220.11;86193.00;0.29;149.73;;;;;13.40;1.00;;;;;;2262939;55;3787;-86
2022/11/22 01:46:59;1289462.00;4.30;2252.83;92946.00;0.31;161.39;;;;;13.70;1.00;;;;;;2265659;61;1419;-87
2022/11/22 01:49:34;121601248.00;405.34;72842408.00;64728.00;0.22;112.65;;;;;13.70;1.00;;;;;;2264101;61;1425;-86
2022/11/22 01:52:07;311610.00;1.04;537.88;55874.00;0.19;97.34;;;;;13.50;1.00;;;;;;2264182;61;1770;-88
2022/11/22 01:54:39;223830.00;0.75;386.93;0.00;0.00;0.62;;;;;13.30;1.00;;;;;;2264061;61;1923;-87
2022/11/22 01:57:14;197435.00;0.66;341.51;0.00;0.00;0.62;;;;;12.80;1.00;;;;;;2264091;61;1111;-89
2022/11/22 01:59:48;190592.00;0.64;329.73;0.00;0.00;0.62;;;;;12.80;1.00;;;;;;2264061;61;1067;-87
2022/11/22 02:02:15;281649.00;0.94;486.37;64127.00;0.21;111.61;;;;;13.10;1.00;;;;;;2264254;61;1122;-87
2022/11/22 02:04:45;355090.00;1.18;612.61;32552.00;0.11;57.00;;;;;13.30;1.00;;;;;;2270040;40;3786;-86
2022/11/22 02:07:20;738714.00;2.46;1274.44;49490.00;0.16;86.30;;;;;12.70;1.00;;;;;;2323772;41;3712;-86
2022/11/22 02:09:51;277531.00;0.93;479.29;0.00;0.00;0.62;;;;;12.90;1.00;;;;;;2271147;40;3630;-87
2022/11/22 02:12:23;249657.00;0.83;431.36;16404.00;0.05;29.04;;;;;13.20;1.00;;;;;;2263986;61;1129;-86
2022/11/22 02:14:52;111359.00;0.37;193.17;0.00;0.00;0.62;;;;;13.30;1.00;;;;;;2263984;61;1934;-88
2022/11/22 02:17:19;157577.00;0.53;272.86;0.00;0.00;0.62;;;;;13.40;1.00;;;;;;2264022;61;1385;-86
2022/11/22 02:19:48;459194.00;1.53;791.60;3261.00;0.01;6.27;;;;;13.30;1.00;;;;;;2263931;61;1745;-86
2022/11/22 02:22:28;774863.00;2.58;1337.32;16478.00;0.05;29.17;;;;;13.30;1.00;;;;;;2264104;61;1132;-85
2022/11/22 02:25:02;1125503.00;3.75;1956.09;97459.00;0.32;169.19;;;;;13.10;1.00;;;;;;2264108;61;1088;-86
2022/11/22 02:30:07;1225381.00;4.08;2136.18;0.00;0.00;0.62;;;;;13.20;1.00;;;;;;2162927;60;1762;-88
2022/11/22 02:32:35;451941.00;1.51;779.12;56083.00;0.19;97.70;;;;;13.50;1.00;;;;;;2260092;61;1144;-85
2022/11/22 02:35:02;154769.00;0.52;268.03;0.00;0.00;0.62;;;;;13.50;1.00;;;;;;2259933;61;1919;-85
2022/11/22 02:37:33;396830.00;1.32;684.36;80264.00;0.27;139.49;;;;;13.50;1.00;;;;;;2259986;61;1395;-86
2022/11/22 02:40:08;683818.00;2.28;1179.19;56847.00;0.19;99.03;;;;;13.60;1.00;;;;;;2260026;61;1122;-86
2022/11/22 02:42:36;1711560.00;5.71;3047.91;84469.00;0.28;146.76;;;;;13.50;1.00;;;;;;2259986;61;1243;-88
2022/11/22 02:45:04;733422.00;2.44;1265.25;84236.00;0.28;146.35;;;;;13.30;1.00;;;;;;2259392;61;1991;-86
2022/11/22 02:47:33;1991447.00;6.64;3606.78;299140.00;1.00;516.44;;;;;13.30;1.00;;;;;;2259740;61;1425;-86
2022/11/22 02:50:00;119201424.00;397.34;68610520.00;90831.00;0.30;157.74;;;;;13.50;1.00;;;;;;2258551;61;1382;-88
2022/11/22 02:52:27;221797.00;0.74;383.44;0.00;0.00;0.62;;;;;13.40;1.00;;;;;;2255917;61;1134;-88
2022/11/22 02:54:54;234526.00;0.78;405.33;5799.00;0.02;10.67;;;;;13.70;1.00;;;;;;2262714;56;3815;-86
2022/11/22 02:57:21;246135.00;0.82;425.30;48742.00;0.16;85.01;;;;;13.90;1.00;;;;;;2264208;61;1683;-86
2022/11/22 02:59:48;451577.00;1.51;778.50;25043.00;0.08;44.00;;;;;13.70;1.00;;;;;;2264341;61;2092;-86
2022/11/22 03:02:15;727909.00;2.43;1255.67;19942.00;0.07;35.17;;;;;13.80;1.00;;;;;;2264454;61;1544;-87
2022/11/22 03:04:44;1366137.00;4.55;2393.67;36871.00;0.12;64.47;;;;;13.90;1.00;;;;;;2264204;61;1419;-87
2022/11/22 03:07:11;1263606.00;4.21;2205.65;31166.00;0.10;54.60;;;;;14.10;1.00;;;;;;2264569;61;1637;-87
2022/11/22 03:09:38;1487317.00;4.96;2619.28;170355.00;0.57;294.88;;;;;14.20;1.00;;;;;;2264604;61;1131;-86
2022/11/22 03:12:06;1592038.00;5.31;2817.53;104943.00;0.35;182.10;;;;;14.30;1.00;;;;;;2264463;61;1802;-86
2022/11/22 03:14:33;118094320.00;393.65;66714836.00;84842.00;0.28;147.40;;;;;14.40;1.00;;;;;;2266489;55;3744;-86
2022/11/22 03:17:00;324450.00;1.08;559.95;0.00;0.00;0.62;;;;;14.50;1.00;;;;;;2319019;40;3601;-85
2022/11/22 03:21:58;1342614.00;4.48;2350.31;0.00;0.00;0.62;;;;;14.60;1.00;;;;;;2262352;61;1308;-86
2022/11/22 03:27:01;1805014.00;6.02;3231.34;343659.00;1.15;592.96;;;;;14.60;1.00;;;;;;2405871;40;2190;-88
2022/11/22 03:29:28;1486187.00;4.95;2617.16;164897.00;0.55;285.48;;;;;14.40;1.00;;;;;;2264499;61;1529;-87
2022/11/22 03:31:55;554708.00;1.85;956.08;82270.00;0.27;142.96;;;;;14.40;1.00;;;;;;2264601;61;1092;-87
2022/11/22 03:34:23;1719567.00;5.73;3063.51;149600.00;0.50;259.12;;;;;14.30;1.00;;;;;;2264621;61;1923;-87
2022/11/22 03:36:50;1099245.00;3.66;1909.07;33470.00;0.11;58.59;;;;;14.10;1.00;;;;;;2264462;61;1826;-86
2022/11/22 03:39:19;1297534.00;4.33;2267.59;52344.00;0.17;91.24;;;;;14.00;1.00;;;;;;2264484;61;1673;-86
2022/11/22 03:41:46;606798.00;2.02;1045.96;90324.00;0.30;156.87;;;;;13.90;1.00;;;;;;2264433;61;1124;-85
2022/11/22 03:44:13;1632475.00;5.44;2894.97;121150.00;0.40;210.07;;;;;13.80;1.00;;;;;;2264515;61;1183;-88
2022/11/22 03:46:40;336512.00;1.12;580.68;0.00;0.00;0.62;;;;;13.80;1.00;;;;;;2264378;61;1155;-86
2022/11/22 03:51:37;1023549.00;3.41;1774.22;0.00;0.00;0.62;;;;;13.80;1.00;;;;;;2267174;61;1210;-86
2022/11/22 03:54:04;391841.00;1.31;675.78;9122.00;0.03;16.43;;;;;13.70;1.00;;;;;;2265212;61;2002;-87
2022/11/22 03:56:33;765432.00;2.55;1320.90;0.00;0.00;0.62;;;;;13.60;1.00;;;;;;2265302;61;1641;-86
2022/11/22 03:59:01;963877.00;3.21;1668.60;176599.00;0.59;305.63;;;;;13.50;1.00;;;;;;2265079;61;1773;-87
2022/11/22 04:01:28;224296.00;0.75;387.74;38391.00;0.13;67.10;;;;;13.60;1.00;;;;;;2265244;61;1113;-88
2022/11/22 04:03:55;301623.00;1.01;520.71;0.00;0.00;0.62;;;;;13.80;1.00;;;;;;2264463;61;1099;-86
2022/11/22 04:06:22;173265.00;0.58;299.89;0.00;0.00;0.62;;;;;13.90;1.00;;;;;;2264314;61;1664;-88
2022/11/22 04:08:50;248028.00;0.83;428.56;62091.00;0.21;108.09;;;;;13.90;1.00;;;;;;2264462;61;1652;-86
2022/11/22 04:11:17;249235.00;0.83;430.64;0.00;0.00;0.62;;;;;13.70;1.00;;;;;;2266588;56;3787;-87
2022/11/22 04:18:59;1012251.00;3.37;1754.18;29117.00;0.10;51.05;;;;;13.00;1.00;;;;;;2261832;61;1822;-86
2022/11/22 04:21:34;193050.00;0.64;333.96;0.00;0.00;0.62;;;;;12.80;1.00;;;;;;2260518;61;1099;-86
2022/11/22 04:26:32;1061971.00;3.54;1842.55;0.00;0.00;0.62;;;;;13.30;1.00;;;;;;2262240;61;1402;-88
2022/11/22 04:29:01;312832.00;1.04;539.98;9638.00;0.03;17.32;;;;;13.50;1.00;;;;;;2260251;61;1693;-86
2022/11/22 04:36:36;1583962.00;5.28;2802.13;95823.00;0.32;166.36;;;;;13.30;1.00;;;;;;2258630;61;1502;-87
2022/11/22 04:39:05;118118312.00;393.73;66755540.00;0.00;0.00;0.62;;;;;13.50;1.00;;;;;;2264297;56;3777;-85
2022/11/22 04:41:33;908393.00;3.03;1570.87;17796.00;0.06;31.45;;;;;12.80;1.00;;;;;;2264288;61;1250;-85
2022/11/22 04:46:49;217240.00;0.72;375.59;0.00;0.00;0.62;;;;;12.70;1.00;;;;;;2264408;61;682;-85
2022/11/22 04:49:17;359197.00;1.20;619.67;0.00;0.00;0.62;;;;;12.40;1.00;;;;;;2264313;61;1429;-86
2022/11/22 04:54:29;136205.00;0.45;236.03;0.00;0.00;0.62;;;;;12.10;1.00;;;;;;2263917;61;1915;-85
2022/11/22 04:56:56;490242.00;1.63;845.03;108201.00;0.36;187.73;;;;;12.00;1.00;;;;;;2264272;61;1449;-86
2022/11/22 04:59:25;494507.00;1.65;852.37;0.00;0.00;0.62;;;;;12.30;1.00;;;;;;2260109;61;1711;-86
2022/11/22 05:01:53;478921.00;1.60;825.54;54036.00;0.18;94.17;;;;;12.30;1.00;;;;;;2264221;61;1162;-87
2022/11/22 05:04:20;625484.00;2.08;1078.24;0.00;0.00;0.62;;;;;12.50;1.00;;;;;;2284494;41;3791;-86
2022/11/22 05:06:48;1323966.00;4.41;2316.03;24625.00;0.08;43.28;;;;;12.40;1.00;;;;;;2275247;56;3732;-86
2022/11/22 05:09:15;276312.00;0.92;477.20;0.00;0.00;0.62;;;;;12.40;1.00;;;;;;2263711;61;1386;-87
2022/11/22 05:11:43;541851.00;1.81;933.91;25647.00;0.09;45.05;;;;;12.30;1.00;;;;;;2263786;61;1662;-87
2022/11/22 05:14:11;602396.00;2.01;1038.36;64692.00;0.22;112.59;;;;;12.30;1.00;;;;;;2264140;61;1790;-87
2022/11/22 05:16:39;971443.00;3.24;1681.96;188545.00;0.63;326.20;;;;;12.30;1.00;;;;;;2264036;61;2007;-86
2022/11/22 05:19:06;640627.00;2.14;1104.42;98651.00;0.33;171.24;;;;;12.50;1.00;;;;;;2273236;56;3837;-86
2022/11/22 05:21:36;589929.00;1.97;1016.83;136370.00;0.45;236.31;;;;;12.50;1.00;;;;;;2264189;61;1119;-86
2022/11/22 05:24:02;465045.00;1.55;801.66;84428.00;0.28;146.69;;;;;12.40;1.00;;;;;;2269899;55;3771;-85
2022/11/22 05:26:32;600779.00;2.00;1035.57;80445.00;0.27;139.81;;;;;12.60;1.00;;;;;;2312305;41;3636;-88
2022/11/22 05:29:04;119668960.00;398.90;69421760.00;0.00;0.00;0.62;;;;;12.90;1.00;;;;;;2259927;61;1313;-87
2022/11/22 05:31:34;653415.00;2.18;1126.54;90241.00;0.30;156.72;;;;;13.20;1.00;;;;;;2269519;57;3727;-86
2022/11/22 05:34:04;443821.00;1.48;765.15;81759.00;0.27;142.08;;;;;13.30;1.00;;;;;;2306332;40;3730;-87
2022/11/22 05:36:33;1242269.00;4.14;2166.83;83895.00;0.28;145.76;;;;;13.30;1.00;;;;;;2282439;41;3614;-86
2022/11/22 05:39:04;477310.00;1.59;822.77;130498.00;0.43;226.19;;;;;13.30;1.00;;;;;;2264215;61;1322;-86
2022/11/22 05:41:32;1073503.00;3.58;1863.10;165664.00;0.55;286.80;;;;;13.30;1.00;;;;;;2264172;61;1602;-85
2022/11/22 05:43:59;745823.00;2.49;1286.80;82786.00;0.28;143.85;;;;;13.40;1.00;;;;;;2266515;40;3598;-86
2022/11/22 05:46:28;657330.00;2.19;1133.32;85605.00;0.29;148.72;;;;;13.30;1.00;;;;;;2264877;61;1112;-85
2022/11/22 05:48:56;545999.00;1.82;941.06;80491.00;0.27;139.89;;;;;13.40;1.00;;;;;;2279148;55;3873;-86
2022/11/22 05:51:28;615792.00;2.05;1061.50;79285.00;0.26;137.80;;;;;13.60;1.00;;;;;;2263939;61;1146;-87
2022/11/22 05:53:56;1241713.00;4.14;2165.82;131992.00;0.44;228.76;;;;;13.50;1.00;;;;;;2264077;61;1775;-86
2022/11/22 05:56:24;1271239.00;4.24;2219.56;106864.00;0.36;185.42;;;;;13.60;1.00;;;;;;2264177;61;2003;-86
2022/11/22 05:58:52;1259664.00;4.20;2198.47;77340.00;0.26;134.44;;;;;13.70;1.00;;;;;;2263632;61;1632;-85
2022/11/22 06:01:22;1633807.00;5.45;2897.52;147198.00;0.49;254.98;;;;;13.70;1.00;;;;;;2263982;61;1035;-87
2022/11/22 06:03:50;2279925.00;7.60;4215.84;251667.00;0.84;434.82;;;;;13.70;1.00;;;;;;2263814;61;2034;-87
2022/11/22 06:06:17;993500.00;3.31;1720.96;101986.00;0.34;177.00;;;;;13.50;1.00;;;;;;2264152;61;1074;-86
2022/11/22 06:11:23;1838802.00;6.13;3298.41;27409.00;0.09;48.10;;;;;13.30;1.00;;;;;;2265797;61;1377;-87
2022/11/22 06:13:52;1351614.00;4.51;2366.88;54575.00;0.18;95.10;;;;;13.30;1.00;;;;;;2268890;56;3738;-86
2022/11/22 06:21:22;1822837.00;6.08;3266.67;0.00;0.00;0.62;;;;;13.80;1.00;;;;;;2257565;61;1339;-86
2022/11/22 06:23:51;929778.00;3.10;1608.48;30755.00;0.10;53.89;;;;;13.90;1.00;;;;;;2255870;61;1699;-86
2022/11/22 06:29:09;3130005.00;10.43;6261.61;253264.00;0.84;437.56;;;;;13.60;1.00;;;;;;2261641;61;1424;-86
2022/11/22 06:31:39;378443.00;1.26;652.75;33351.00;0.11;58.38;;;;;13.70;1.00;;;;;;2259849;61;1305;-86
2022/11/22 06:34:07;739162.00;2.46;1275.22;124919.00;0.42;216.57;;;;;13.50;1.00;;;;;;2282819;55;3834;-87
2022/11/22 06:36:35;762066.00;2.54;1315.04;20470.00;0.07;36.08;;;;;13.30;1.00;;;;;;2270494;41;3614;-89
2022/11/22 06:39:02;905117.00;3.02;1565.11;8153.00;0.03;14.75;;;;;13.00;1.00;;;;;;2303946;41;3563;-88
2022/11/22 06:41:33;971409.00;3.24;1681.90;5526.00;0.02;10.20;;;;;13.10;1.00;;;;;;2263822;61;987;-86
2022/11/22 06:46:31;1513854.00;5.05;2669.22;26977.00;0.09;47.35;;;;;13.20;1.00;;;;;;1543145;56;3810;-86
2022/11/22 06:51:34;72032.00;0.24;125.27;0.00;0.00;0.62;;;;;13.40;1.00;;;;;;2277817;57;1778;-89
2022/11/22 06:54:03;268106.00;0.89;463.09;0.00;0.00;0.62;;;;;13.10;1.00;;;;;;2278068;40;3747;-86
2022/11/22 06:56:32;425148.00;1.42;733.04;47148.00;0.16;82.25;;;;;12.50;1.00;;;;;;2272810;56;3678;-86
2022/11/22 07:01:38;1323663.00;4.41;2315.48;18304.00;0.06;32.33;;;;;11.60;1.00;;;;;;2389126;40;3483;-85
2022/11/22 07:04:06;1699471.00;5.66;3024.40;127761.00;0.43;221.47;;;;;11.30;1.00;;;;;;2263862;61;1142;-85
2022/11/22 07:09:08;1688792.00;5.63;3003.67;88075.00;0.29;152.98;;;;;11.00;1.00;;;;;;1997791;41;3596;-88
2022/11/22 07:11:36;227487.00;0.76;393.23;0.00;0.00;0.62;;;;;10.80;1.00;;;;;;2274791;56;3761;-85
2022/11/22 07:14:05;297733.00;0.99;514.02;4038.00;0.01;7.62;;;;;10.70;1.00;;;;;;2280228;40;3748;-84
2022/11/22 07:16:33;234149.00;0.78;404.69;0.00;0.00;0.62;;;;;10.70;1.00;;;;;;2266525;40;3452;-85
2022/11/22 07:19:02;451922.00;1.51;779.09;61439.00;0.20;106.96;;;;;10.80;1.00;;;;;;2263602;61;1810;-86
2022/11/22 07:26:38;573105.00;1.91;987.80;6865.00;0.02;12.52;;;;;10.60;1.00;;;;;;2396336;40;2005;-85
2022/11/22 07:29:06;246370.00;0.82;425.71;83025.00;0.28;144.26;;;;;10.60;1.00;;;;;;2371637;40;3623;-85
2022/11/22 07:31:34;118859880.00;396.20;68021912.00;0.00;0.00;0.62;;;;;10.80;1.00;;;;;;2288893;40;3612;-86
2022/11/22 07:34:03;995897.00;3.32;1725.21;44732.00;0.15;78.07;;;;;10.90;1.00;;;;;;2275657;56;3669;-85
2022/11/22 07:36:31;1396613.00;4.66;2450.04;46686.00;0.16;81.45;;;;;10.90;1.00;;;;;;2315293;56;3700;-86
2022/11/22 07:41:34;1245888.00;4.15;2173.41;0.00;0.00;0.62;;;;;10.90;1.00;;;;;;1816271;41;3446;-87
2022/11/22 07:46:40;915921.00;3.05;1584.10;66831.00;0.22;116.28;;;;;11.10;1.00;;;;;;2376194;41;2099;-88
2022/11/22 07:49:13;1089799.00;3.63;1892.19;54985.00;0.18;95.81;;;;;11.20;1.00;;;;;;2373619;56;3783;-86
2022/11/22 07:51:43;1904546.00;6.35;3430.13;235333.00;0.78;406.72;;;;;11.40;1.00;;;;;;2384794;41;3766;-88
2022/11/22 07:54:13;814793.00;2.72;1406.93;11894.00;0.04;21.23;;;;;11.30;1.00;;;;;;2313973;40;3590;-87
2022/11/22 07:59:14;1225192.00;4.08;2135.83;31431.00;0.10;55.06;;;;;11.30;1.00;;;;;;2288567;56;3784;-86
2022/11/22 08:01:41;357246.00;1.19;616.32;19364.00;0.06;34.17;;;;;11.70;1.00;;;;;;2338560;40;3770;-84
2022/11/22 08:04:10;370684.00;1.24;639.41;0.00;0.00;0.62;;;;;12.00;1.00;;;;;;2318907;40;3597;-87
2022/11/22 08:06:37;287942.00;0.96;497.19;7336.00;0.02;13.33;;;;;12.50;1.00;;;;;;2264385;61;1146;-88
2022/11/22 08:09:05;292620.00;0.98;505.23;0.00;0.00;0.62;;;;;12.60;1.00;;;;;;2287459;56;3951;-85
2022/11/22 08:11:32;143053.00;0.48;247.83;0.00;0.00;0.62;;;;;12.90;1.00;;;;;;2271470;56;3781;-85
2022/11/22 08:13:59;285590.00;0.95;493.15;0.00;0.00;0.62;;;;;13.00;1.00;;;;;;2264350;61;1815;-85
2022/11/22 08:16:27;212955.00;0.71;368.22;0.00;0.00;0.62;;;;;13.40;1.00;;;;;;2305241;41;3653;-85
2022/11/22 08:18:55;269196.00;0.90;464.96;0.00;0.00;0.62;;;;;13.40;1.00;;;;;;2264294;61;1606;-87
2022/11/22 08:21:24;238208.00;0.79;411.67;0.00;0.00;0.62;;;;;13.40;1.00;;;;;;2264205;61;1132;-87
2022/11/22 08:23:52;253327.00;0.84;437.67;0.00;0.00;0.62;;;;;13.40;1.00;;;;;;2264532;61;1139;-86
2022/11/22 08:26:20;231636.00;0.77;400.36;0.00;0.00;0.62;;;;;13.40;1.00;;;;;;2267188;40;3627;-88
2022/11/22 08:28:48;353535.00;1.18;609.94;0.00;0.00;0.62;;;;;13.10;1.00;;;;;;2264369;61;1253;-87
2022/11/22 08:31:18;221296.00;0.74;382.57;0.00;0.00;0.62;;;;;13.30;1.00;;;;;;2264212;61;1115;-86
2022/11/22 08:33:46;349713.00;1.17;603.37;0.00;0.00;0.62;;;;;13.60;1.00;;;;;;2264476;61;1003;-86
2022/11/22 08:38:44;594000.00;1.98;1023.86;0.00;0.00;0.62;;;;;14.10;1.00;;;;;;2261863;61;1393;-86
2022/11/22 08:41:12;373609.00;1.25;644.44;0.00;0.00;0.62;;;;;14.10;1.00;;;;;;2260222;61;1107;-86
2022/11/22 08:43:39;272235.00;0.91;470.19;0.00;0.00;0.62;;;;;14.20;1.00;;;;;;2260180;61;1744;-87
2022/11/22 08:48:51;1193094.00;3.98;2077.74;0.00;0.00;0.62;;;;;14.10;1.00;;;;;;2261649;61;1439;-86
2022/11/22 08:51:19;164705.00;0.55;285.15;0.00;0.00;0.62;;;;;14.00;1.00;;;;;;2263675;56;3758;-86
2022/11/22 08:53:47;271371.00;0.90;468.70;0.00;0.00;0.62;;;;;13.90;1.00;;;;;;2285910;55;3794;-88
2022/11/22 08:56:16;287045.00;0.96;495.65;0.00;0.00;0.62;;;;;14.00;1.00;;;;;;2264163;61;1924;-86
2022/11/22 08:58:43;238330.00;0.79;411.88;82704.00;0.28;143.71;;;;;13.80;1.00;;;;;;2264135;61;1322;-85
2022/11/22 09:01:13;640657.00;2.14;1104.48;132404.00;0.44;229.47;;;;;13.80;1.00;;;;;;2264251;61;1160;-84
2022/11/22 09:03:40;776716.00;2.59;1340.55;86028.00;0.29;149.45;;;;;13.80;1.00;;;;;;2264080;61;1020;-86
2022/11/22 09:06:12;433782.00;1.45;747.89;84458.00;0.28;146.74;;;;;13.60;1.00;;;;;;2286191;40;3792;-86
2022/11/22 09:18:59;1039258.00;3.46;1802.13;34242.00;0.11;59.92;;;;;13.40;1.00;;;;;;1910703;41;3321;-86
2022/11/22 09:21:28;1066890.00;3.56;1851.31;24274.00;0.08;42.67;;;;;13.40;1.00;;;;;;2362914;40;3773;-87
2022/11/22 09:24:06;970817.00;3.24;1680.85;70155.00;0.23;122.03;;;;;13.50;1.00;;;;;;2260057;61;1412;-87
2022/11/22 09:26:34;401656.00;1.34;692.65;0.00;0.00;0.62;;;;;13.30;1.00;;;;;;2260130;61;1179;-86
2022/11/22 09:34:21;592591.00;1.98;1021.43;68305.00;0.23;118.83;;;;;14.20;1.00;;;;;;2376721;41;2212;-87
2022/11/22 09:37:06;283610.00;0.95;489.74;115838.00;0.39;200.90;;;;;14.00;1.00;;;;;;2287763;40;3601;-87
2022/11/22 09:39:34;317167.00;1.06;547.43;0.00;0.00;0.62;;;;;13.30;1.00;;;;;;2385816;40;3683;-88
2022/11/22 09:42:29;324192.00;1.08;559.50;0.00;0.00;0.62;;;;;13.30;1.00;;;;;;2414214;40;3577;-86
2022/11/22 09:47:46;107942.00;0.36;187.28;0.00;0.00;0.62;;;;;12.90;1.00;;;;;;1284422;41;3261;-87
2022/11/22 09:52:59;1500638.00;5.00;2644.32;0.00;0.00;0.62;;;;;12.30;1.00;;;;;;2274078;40;3468;-85
2022/11/22 09:55:35;495044.00;1.65;853.29;0.00;0.00;0.62;;;;;12.50;1.00;;;;;;2270079;56;3757;-87
2022/11/22 10:00:32;1144287.00;3.81;1989.81;4977.00;0.02;9.25;;;;;12.80;1.00;;;;;;2331457;56;3615;-88
2022/11/22 10:03:07;357923.00;1.19;617.48;76693.00;0.26;133.32;;;;;13.10;1.00;;;;;;2271741;40;3562;-88
2022/11/22 10:05:45;190722.00;0.64;329.95;0.00;0.00;0.62;;;;;13.60;1.00;;;;;;2375443;40;3756;-86
2022/11/22 10:08:31;226453.00;0.75;391.45;16746.00;0.06;29.63;;;;;13.90;1.00;;;;;;2259967;61;1626;-86
2022/11/22 10:11:05;339519.00;1.13;585.85;58443.00;0.19;101.79;;;;;13.90;1.00;;;;;;2259930;61;1148;-88
2022/11/22 10:13:44;174112.00;0.58;301.35;0.00;0.00;0.62;;;;;13.90;1.00;;;;;;2260017;61;1496;-87
2022/11/22 10:16:20;396897.00;1.32;684.47;0.00;0.00;0.62;;;;;14.10;1.00;;;;;;2259917;61;1991;-86
2022/11/22 10:18:58;259883.00;0.87;448.95;0.00;0.00;0.62;;;;;14.30;1.00;;;;;;2291927;40;3644;-89
2022/11/22 10:24:06;452603.00;1.51;780.26;16751.00;0.06;29.64;;;;;14.00;1.00;;;;;;2368884;41;2073;-86
2022/11/22 10:26:43;258254.00;0.86;446.15;0.00;0.00;0.62;;;;;13.40;1.00;;;;;;2268577;55;3789;-86
2022/11/22 10:29:33;413999.00;1.38;713.87;0.00;0.00;0.62;;;;;13.40;1.00;;;;;;2264610;61;1672;-88
2022/11/22 10:37:39;866126.00;2.89;1496.70;85809.00;0.29;149.07;;;;;13.50;1.00;;;;;;2317865;41;2197;-88
2022/11/22 10:40:26;434191.00;1.45;748.59;137103.00;0.46;237.58;;;;;13.20;1.00;;;;;;2356278;40;3787;-86
2022/11/22 10:43:22;138042192.00;460.14;106602536.00;76335.00;0.25;132.71;;;;;13.20;1.00;;;;;;2436388;41;3732;-90
2022/11/22 10:46:04;521707.00;1.74;899.21;80127.00;0.27;139.26;;;;;13.20;1.00;;;;;;2325503;40;3759;-87
2022/11/22 10:51:26;684536.00;2.28;1180.43;97988.00;0.33;170.10;;;;;13.70;1.00;;;;;;2267528;56;1842;-87
2022/11/22 10:56:44;1142307.00;3.81;1986.25;99331.00;0.33;172.42;;;;;14.00;1.00;;;;;;2295546;41;1943;-87
2022/11/22 11:07:25;943124.00;3.14;1631.99;89121.00;0.30;154.79;;;;;13.20;1.00;;;;;;2295996;56;1870;-87
2022/11/22 11:09:59;832885.00;2.78;1438.54;50813.00;0.17;88.59;;;;;13.50;1.00;;;;;;2396779;40;3793;-86
2022/11/22 11:15:22;824438.00;2.75;1423.78;47071.00;0.16;82.12;;;;;13.20;1.00;;;;;;2368414;56;1755;-88
2022/11/22 11:23:01;271797.00;0.91;469.43;0.00;0.00;0.62;;;;;13.00;1.00;;;;;;1422750;56;2715;-88
2022/11/22 11:28:18;241137.00;0.80;416.71;0.00;0.00;0.62;;;;;13.70;1.00;;;;;;2385318;40;2100;-87
2022/11/22 11:47:37;312864.00;1.04;540.03;0.00;0.00;0.62;;;;;13.60;1.00;;;;;;2295374;41;1675;-85
2022/11/22 11:52:53;390127.00;1.30;672.83;99364.00;0.33;172.47;;;;;13.90;1.00;;;;;;2460113;40;2118;-86
2022/11/22 12:04:22;1106719.00;3.69;1922.44;51249.00;0.17;89.35;;;;;13.50;1.00;;;;;;2310882;41;1730;-88
2022/11/22 12:15:09;111827.00;0.37;193.98;44569.00;0.15;77.79;;;;;13.20;1.00;;;;;;2410256;40;1835;-86
2022/11/22 12:20:41;452271.00;1.51;779.69;0.00;0.00;0.62;;;;;13.50;1.00;;;;;;2267949;56;1697;-88
2022/11/22 12:52:53;872678.00;2.91;1508.18;22779.00;0.08;40.08;;;;;12.50;1.00;;;;;;2248683;40;3228;-86
2022/11/22 13:16:40;373930.00;1.25;644.99;0.00;0.00;0.62;;;;;12.50;1.00;;;;;;1966363;41;2544;-87
2022/11/22 14:07:11;1590125.00;5.30;2813.88;129603.00;0.43;224.64;;;;;11.80;1.00;;;;;;2314299;41;3620;-88
2022/11/22 14:12:58;352760.00;1.18;608.60;0.00;0.00;0.62;;;;;12.00;1.00;;;;;;2306692;56;1835;-88
2022/11/22 14:54:21;414257.00;1.38;714.32;0.00;0.00;0.62;;;;;12.40;1.00;;;;;;1584868;41;2605;-88